sensor_id;sensor_type;location;lat;lon;timestamp;P1;durP1;ratioP1;P2;durP2;ratioP2
8247;SDS011;4164;49.844;8.830;2023-01-28T00:01:03;16.20;;;9.13;;
8247;SDS011;4164;49.844;8.830;2023-01-28T00:03:33;20.07;;;12.37;;
8247;SDS011;4164;49.844;8.830;2023-01-28T00:06:06;10.37;;;6.30;;
8247;SDS011;4164;49.844;8.830;2023-01-28T00:08:37;5.83;;;4.47;;
8247;SDS011;4164;49.844;8.830;2023-01-28T00:11:04;8.73;;;6.10;;
8247;SDS011;4164;49.844;8.830;2023-01-28T00:13:30;9.27;;;6.67;;
8247;SDS011;4164;49.844;8.830;2023-01-28T00:15:57;3.10;;;2.80;;
8247;SDS011;4164;49.844;8.830;2023-01-28T00:18:25;5.50;;;4.23;;
8247;SDS011;4164;49.844;8.830;2023-01-28T00:20:55;4.70;;;3.23;;
8247;SDS011;4164;49.844;8.830;2023-01-28T00:23:25;5.83;;;4.10;;
8247;SDS011;4164;49.844;8.830;2023-01-28T00:25:54;3.83;;;3.37;;
8247;SDS011;4164;49.844;8.830;2023-01-28T00:28:23;4.00;;;3.40;;
8247;SDS011;4164;49.844;8.830;2023-01-28T00:30:48;3.83;;;3.30;;
8247;SDS011;4164;49.844;8.830;2023-01-28T00:33:14;4.30;;;3.37;;
8247;SDS011;4164;49.844;8.830;2023-01-28T00:35:39;3.30;;;3.00;;
8247;SDS011;4164;49.844;8.830;2023-01-28T00:38:05;4.30;;;3.33;;
8247;SDS011;4164;49.844;8.830;2023-01-28T00:40:30;5.47;;;3.07;;
8247;SDS011;4164;49.844;8.830;2023-01-28T00:42:56;4.27;;;3.30;;
8247;SDS011;4164;49.844;8.830;2023-01-28T00:45:21;3.93;;;3.10;;
8247;SDS011;4164;49.844;8.830;2023-01-28T00:47:47;6.00;;;3.53;;
8247;SDS011;4164;49.844;8.830;2023-01-28T00:50:13;5.03;;;3.03;;
8247;SDS011;4164;49.844;8.830;2023-01-28T00:52:38;4.57;;;3.60;;
8247;SDS011;4164;49.844;8.830;2023-01-28T00:55:05;4.07;;;3.17;;
8247;SDS011;4164;49.844;8.830;2023-01-28T00:57:31;6.80;;;3.87;;
8247;SDS011;4164;49.844;8.830;2023-01-28T00:59:57;5.73;;;3.57;;
8247;SDS011;4164;49.844;8.830;2023-01-28T01:02:23;4.47;;;3.43;;
8247;SDS011;4164;49.844;8.830;2023-01-28T01:04:49;4.17;;;3.70;;
8247;SDS011;4164;49.844;8.830;2023-01-28T01:07:24;3.90;;;3.40;;
8247;SDS011;4164;49.844;8.830;2023-01-28T01:10:11;4.43;;;3.57;;
8247;SDS011;4164;49.844;8.830;2023-01-28T01:12:40;5.23;;;4.00;;
8247;SDS011;4164;49.844;8.830;2023-01-28T01:15:06;5.83;;;3.53;;
8247;SDS011;4164;49.844;8.830;2023-01-28T01:17:34;5.10;;;3.37;;
8247;SDS011;4164;49.844;8.830;2023-01-28T01:20:04;4.00;;;3.40;;
8247;SDS011;4164;49.844;8.830;2023-01-28T01:22:35;7.30;;;3.80;;
8247;SDS011;4164;49.844;8.830;2023-01-28T01:25:02;4.30;;;3.43;;
8247;SDS011;4164;49.844;8.830;2023-01-28T01:27:29;8.10;;;3.57;;
8247;SDS011;4164;49.844;8.830;2023-01-28T01:29:55;3.70;;;3.20;;
8247;SDS011;4164;49.844;8.830;2023-01-28T01:32:20;3.90;;;3.07;;
8247;SDS011;4164;49.844;8.830;2023-01-28T01:34:46;3.53;;;3.20;;
8247;SDS011;4164;49.844;8.830;2023-01-28T01:37:12;4.93;;;3.60;;
8247;SDS011;4164;49.844;8.830;2023-01-28T01:39:38;5.50;;;3.60;;
8247;SDS011;4164;49.844;8.830;2023-01-28T01:42:03;5.67;;;3.17;;
8247;SDS011;4164;49.844;8.830;2023-01-28T01:49:57;5.10;;;3.50;;
8247;SDS011;4164;49.844;8.830;2023-01-28T01:52:27;5.37;;;3.40;;
8247;SDS011;4164;49.844;8.830;2023-01-28T01:54:57;5.13;;;3.23;;
8247;SDS011;4164;49.844;8.830;2023-01-28T01:57:27;4.10;;;3.17;;
8247;SDS011;4164;49.844;8.830;2023-01-28T01:59:54;5.03;;;3.10;;
8247;SDS011;4164;49.844;8.830;2023-01-28T02:02:29;3.40;;;2.60;;
8247;SDS011;4164;49.844;8.830;2023-01-28T02:04:59;3.57;;;2.90;;
8247;SDS011;4164;49.844;8.830;2023-01-28T02:07:25;3.60;;;3.00;;
8247;SDS011;4164;49.844;8.830;2023-01-28T02:09:51;3.50;;;3.10;;
8247;SDS011;4164;49.844;8.830;2023-01-28T02:12:17;4.37;;;2.83;;
8247;SDS011;4164;49.844;8.830;2023-01-28T02:14:48;3.03;;;2.73;;
8247;SDS011;4164;49.844;8.830;2023-01-28T02:17:16;3.70;;;2.53;;
8247;SDS011;4164;49.844;8.830;2023-01-28T02:19:47;2.90;;;2.63;;
8247;SDS011;4164;49.844;8.830;2023-01-28T02:28:03;6.30;;;3.20;;
8247;SDS011;4164;49.844;8.830;2023-01-28T02:30:55;3.47;;;2.33;;
8247;SDS011;4164;49.844;8.830;2023-01-28T02:33:32;3.90;;;2.53;;
8247;SDS011;4164;49.844;8.830;2023-01-28T02:36:35;4.00;;;3.00;;
8247;SDS011;4164;49.844;8.830;2023-01-28T02:39:05;2.80;;;2.50;;
8247;SDS011;4164;49.844;8.830;2023-01-28T02:41:39;3.13;;;2.67;;
8247;SDS011;4164;49.844;8.830;2023-01-28T02:44:10;4.23;;;2.93;;
8247;SDS011;4164;49.844;8.830;2023-01-28T02:46:36;4.07;;;3.03;;
8247;SDS011;4164;49.844;8.830;2023-01-28T02:49:25;3.87;;;3.10;;
8247;SDS011;4164;49.844;8.830;2023-01-28T02:52:55;6.13;;;3.30;;
8247;SDS011;4164;49.844;8.830;2023-01-28T02:58:09;4.03;;;3.27;;
8247;SDS011;4164;49.844;8.830;2023-01-28T03:03:24;3.20;;;2.90;;
8247;SDS011;4164;49.844;8.830;2023-01-28T03:05:57;4.90;;;2.90;;
8247;SDS011;4164;49.844;8.830;2023-01-28T03:11:38;3.93;;;3.07;;
8247;SDS011;4164;49.844;8.830;2023-01-28T03:14:27;4.67;;;2.97;;
8247;SDS011;4164;49.844;8.830;2023-01-28T03:17:19;4.20;;;3.20;;
8247;SDS011;4164;49.844;8.830;2023-01-28T03:20:33;3.50;;;3.17;;
8247;SDS011;4164;49.844;8.830;2023-01-28T03:23:26;3.63;;;3.20;;
8247;SDS011;4164;49.844;8.830;2023-01-28T03:26:15;3.30;;;3.00;;
8247;SDS011;4164;49.844;8.830;2023-01-28T03:29:05;4.20;;;3.07;;
8247;SDS011;4164;49.844;8.830;2023-01-28T03:31:53;3.50;;;3.00;;
8247;SDS011;4164;49.844;8.830;2023-01-28T03:34:38;8.00;;;4.27;;
8247;SDS011;4164;49.844;8.830;2023-01-28T03:37:23;4.07;;;2.70;;
8247;SDS011;4164;49.844;8.830;2023-01-28T03:39:50;4.57;;;2.93;;
8247;SDS011;4164;49.844;8.830;2023-01-28T03:42:16;3.77;;;2.80;;
8247;SDS011;4164;49.844;8.830;2023-01-28T03:44:42;3.90;;;3.07;;
8247;SDS011;4164;49.844;8.830;2023-01-28T03:47:21;5.00;;;2.97;;
8247;SDS011;4164;49.844;8.830;2023-01-28T03:49:49;3.13;;;2.50;;
8247;SDS011;4164;49.844;8.830;2023-01-28T03:52:17;5.00;;;2.90;;
8247;SDS011;4164;49.844;8.830;2023-01-28T03:54:54;3.77;;;2.83;;
8247;SDS011;4164;49.844;8.830;2023-01-28T03:57:21;5.40;;;2.93;;
8247;SDS011;4164;49.844;8.830;2023-01-28T03:59:51;3.70;;;2.83;;
8247;SDS011;4164;49.844;8.830;2023-01-28T04:02:17;4.47;;;2.90;;
8247;SDS011;4164;49.844;8.830;2023-01-28T04:04:45;5.17;;;3.20;;
8247;SDS011;4164;49.844;8.830;2023-01-28T04:07:11;3.50;;;3.13;;
8247;SDS011;4164;49.844;8.830;2023-01-28T04:09:39;3.80;;;2.90;;
8247;SDS011;4164;49.844;8.830;2023-01-28T04:12:05;4.13;;;2.90;;
8247;SDS011;4164;49.844;8.830;2023-01-28T04:14:31;4.03;;;2.67;;
8247;SDS011;4164;49.844;8.830;2023-01-28T04:16:57;4.73;;;3.20;;
8247;SDS011;4164;49.844;8.830;2023-01-28T04:19:22;4.33;;;3.00;;
8247;SDS011;4164;49.844;8.830;2023-01-28T04:21:48;3.73;;;3.00;;
8247;SDS011;4164;49.844;8.830;2023-01-28T04:24:15;3.87;;;3.13;;
8247;SDS011;4164;49.844;8.830;2023-01-28T04:26:40;6.03;;;3.40;;
8247;SDS011;4164;49.844;8.830;2023-01-28T04:29:06;3.10;;;2.80;;
8247;SDS011;4164;49.844;8.830;2023-01-28T04:31:32;3.30;;;3.00;;
8247;SDS011;4164;49.844;8.830;2023-01-28T04:33:58;3.47;;;2.90;;
8247;SDS011;4164;49.844;8.830;2023-01-28T04:36:24;4.60;;;3.77;;
8247;SDS011;4164;49.844;8.830;2023-01-28T04:38:50;3.53;;;3.07;;
8247;SDS011;4164;49.844;8.830;2023-01-28T04:41:16;5.57;;;3.47;;
8247;SDS011;4164;49.844;8.830;2023-01-28T04:43:41;4.27;;;3.13;;
8247;SDS011;4164;49.844;8.830;2023-01-28T04:46:07;6.80;;;3.60;;
8247;SDS011;4164;49.844;8.830;2023-01-28T04:48:33;4.30;;;3.27;;
8247;SDS011;4164;49.844;8.830;2023-01-28T04:51:00;3.87;;;3.13;;
8247;SDS011;4164;49.844;8.830;2023-01-28T04:53:26;4.93;;;3.37;;
8247;SDS011;4164;49.844;8.830;2023-01-28T04:55:52;6.07;;;4.30;;
8247;SDS011;4164;49.844;8.830;2023-01-28T04:58:17;3.80;;;3.40;;
8247;SDS011;4164;49.844;8.830;2023-01-28T05:00:43;7.33;;;3.77;;
8247;SDS011;4164;49.844;8.830;2023-01-28T05:03:08;9.00;;;4.03;;
8247;SDS011;4164;49.844;8.830;2023-01-28T05:05:34;6.23;;;4.23;;
8247;SDS011;4164;49.844;8.830;2023-01-28T05:07:59;6.07;;;3.97;;
8247;SDS011;4164;49.844;8.830;2023-01-28T05:10:25;8.43;;;4.23;;
8247;SDS011;4164;49.844;8.830;2023-01-28T05:12:51;5.10;;;3.93;;
8247;SDS011;4164;49.844;8.830;2023-01-28T05:15:18;6.00;;;4.30;;
8247;SDS011;4164;49.844;8.830;2023-01-28T05:17:44;5.47;;;3.77;;
8247;SDS011;4164;49.844;8.830;2023-01-28T05:20:10;5.47;;;4.27;;
8247;SDS011;4164;49.844;8.830;2023-01-28T05:22:37;8.60;;;4.50;;
8247;SDS011;4164;49.844;8.830;2023-01-28T05:25:03;5.43;;;4.00;;
8247;SDS011;4164;49.844;8.830;2023-01-28T05:27:29;5.80;;;4.03;;
8247;SDS011;4164;49.844;8.830;2023-01-28T05:29:56;5.23;;;3.53;;
8247;SDS011;4164;49.844;8.830;2023-01-28T05:32:22;5.13;;;3.90;;
8247;SDS011;4164;49.844;8.830;2023-01-28T05:34:48;6.67;;;3.70;;
8247;SDS011;4164;49.844;8.830;2023-01-28T05:37:13;5.70;;;4.03;;
8247;SDS011;4164;49.844;8.830;2023-01-28T05:39:39;5.50;;;4.13;;
8247;SDS011;4164;49.844;8.830;2023-01-28T05:42:04;5.43;;;3.83;;
8247;SDS011;4164;49.844;8.830;2023-01-28T05:44:30;5.47;;;3.90;;
8247;SDS011;4164;49.844;8.830;2023-01-28T05:46:55;6.23;;;4.07;;
8247;SDS011;4164;49.844;8.830;2023-01-28T05:49:21;4.73;;;3.83;;
8247;SDS011;4164;49.844;8.830;2023-01-28T05:51:46;5.73;;;4.10;;
8247;SDS011;4164;49.844;8.830;2023-01-28T05:54:12;4.87;;;4.13;;
8247;SDS011;4164;49.844;8.830;2023-01-28T05:56:38;6.00;;;3.90;;
8247;SDS011;4164;49.844;8.830;2023-01-28T05:59:04;7.37;;;4.23;;
8247;SDS011;4164;49.844;8.830;2023-01-28T06:01:29;7.20;;;3.90;;
8247;SDS011;4164;49.844;8.830;2023-01-28T06:03:55;5.63;;;4.23;;
8247;SDS011;4164;49.844;8.830;2023-01-28T06:06:21;5.97;;;4.13;;
8247;SDS011;4164;49.844;8.830;2023-01-28T06:08:46;7.03;;;4.40;;
8247;SDS011;4164;49.844;8.830;2023-01-28T06:11:12;6.07;;;4.60;;
8247;SDS011;4164;49.844;8.830;2023-01-28T06:13:37;9.03;;;4.70;;
8247;SDS011;4164;49.844;8.830;2023-01-28T06:16:05;5.03;;;4.27;;
8247;SDS011;4164;49.844;8.830;2023-01-28T06:18:32;6.13;;;4.27;;
8247;SDS011;4164;49.844;8.830;2023-01-28T06:20:57;6.60;;;4.97;;
8247;SDS011;4164;49.844;8.830;2023-01-28T06:23:23;5.53;;;4.57;;
8247;SDS011;4164;49.844;8.830;2023-01-28T06:25:52;5.30;;;4.23;;
8247;SDS011;4164;49.844;8.830;2023-01-28T06:28:18;6.33;;;4.10;;
8247;SDS011;4164;49.844;8.830;2023-01-28T06:30:46;5.67;;;4.00;;
8247;SDS011;4164;49.844;8.830;2023-01-28T06:33:13;5.80;;;4.07;;
8247;SDS011;4164;49.844;8.830;2023-01-28T06:35:38;8.40;;;4.10;;
8247;SDS011;4164;49.844;8.830;2023-01-28T06:38:04;6.97;;;4.17;;
8247;SDS011;4164;49.844;8.830;2023-01-28T06:40:29;7.47;;;4.00;;
8247;SDS011;4164;49.844;8.830;2023-01-28T06:42:55;8.47;;;3.60;;
8247;SDS011;4164;49.844;8.830;2023-01-28T06:45:20;6.80;;;3.50;;
8247;SDS011;4164;49.844;8.830;2023-01-28T06:47:46;4.00;;;3.53;;
8247;SDS011;4164;49.844;8.830;2023-01-28T06:50:11;4.87;;;3.90;;
8247;SDS011;4164;49.844;8.830;2023-01-28T06:52:37;4.90;;;3.80;;
8247;SDS011;4164;49.844;8.830;2023-01-28T06:55:03;7.63;;;3.90;;
8247;SDS011;4164;49.844;8.830;2023-01-28T06:57:29;5.53;;;3.90;;
8247;SDS011;4164;49.844;8.830;2023-01-28T06:59:55;5.60;;;3.50;;
8247;SDS011;4164;49.844;8.830;2023-01-28T07:02:20;4.63;;;3.30;;
8247;SDS011;4164;49.844;8.830;2023-01-28T07:04:46;7.07;;;3.77;;
8247;SDS011;4164;49.844;8.830;2023-01-28T07:07:11;5.13;;;3.70;;
8247;SDS011;4164;49.844;8.830;2023-01-28T07:09:40;4.87;;;3.40;;
8247;SDS011;4164;49.844;8.830;2023-01-28T07:12:05;7.97;;;3.57;;
8247;SDS011;4164;49.844;8.830;2023-01-28T07:14:31;5.40;;;3.73;;
8247;SDS011;4164;49.844;8.830;2023-01-28T07:16:57;5.13;;;3.10;;
8247;SDS011;4164;49.844;8.830;2023-01-28T07:19:22;4.80;;;3.60;;
8247;SDS011;4164;49.844;8.830;2023-01-28T07:21:48;10.53;;;5.73;;
8247;SDS011;4164;49.844;8.830;2023-01-28T07:24:13;7.27;;;3.90;;
8247;SDS011;4164;49.844;8.830;2023-01-28T07:26:39;6.10;;;3.67;;
8247;SDS011;4164;49.844;8.830;2023-01-28T07:29:04;5.07;;;3.77;;
8247;SDS011;4164;49.844;8.830;2023-01-28T07:31:30;6.77;;;4.47;;
8247;SDS011;4164;49.844;8.830;2023-01-28T07:33:55;5.53;;;4.07;;
8247;SDS011;4164;49.844;8.830;2023-01-28T07:36:21;6.37;;;4.20;;
8247;SDS011;4164;49.844;8.830;2023-01-28T07:38:46;6.07;;;4.10;;
8247;SDS011;4164;49.844;8.830;2023-01-28T07:41:12;6.47;;;3.97;;
8247;SDS011;4164;49.844;8.830;2023-01-28T07:43:37;6.33;;;3.70;;
8247;SDS011;4164;49.844;8.830;2023-01-28T07:46:03;6.83;;;3.70;;
8247;SDS011;4164;49.844;8.830;2023-01-28T07:48:29;4.47;;;3.53;;
8247;SDS011;4164;49.844;8.830;2023-01-28T07:50:57;5.87;;;3.73;;
8247;SDS011;4164;49.844;8.830;2023-01-28T07:53:23;7.00;;;3.97;;
8247;SDS011;4164;49.844;8.830;2023-01-28T07:55:48;7.83;;;4.03;;
8247;SDS011;4164;49.844;8.830;2023-01-28T07:58:14;7.67;;;3.80;;
8247;SDS011;4164;49.844;8.830;2023-01-28T08:00:39;5.67;;;4.00;;
8247;SDS011;4164;49.844;8.830;2023-01-28T08:03:06;7.10;;;4.30;;
8247;SDS011;4164;49.844;8.830;2023-01-28T08:08:09;6.17;;;3.93;;
8247;SDS011;4164;49.844;8.830;2023-01-28T08:10:36;7.17;;;4.07;;
8247;SDS011;4164;49.844;8.830;2023-01-28T08:13:03;4.43;;;3.70;;
8247;SDS011;4164;49.844;8.830;2023-01-28T08:15:29;6.00;;;3.50;;
8247;SDS011;4164;49.844;8.830;2023-01-28T08:17:55;6.20;;;4.07;;
8247;SDS011;4164;49.844;8.830;2023-01-28T08:20:24;6.23;;;3.70;;
8247;SDS011;4164;49.844;8.830;2023-01-28T08:22:51;5.87;;;3.73;;
8247;SDS011;4164;49.844;8.830;2023-01-28T08:25:17;7.83;;;3.63;;
8247;SDS011;4164;49.844;8.830;2023-01-28T08:27:43;4.37;;;3.40;;
8247;SDS011;4164;49.844;8.830;2023-01-28T08:30:08;5.73;;;3.33;;
8247;SDS011;4164;49.844;8.830;2023-01-28T08:32:35;4.07;;;3.13;;
8247;SDS011;4164;49.844;8.830;2023-01-28T08:35:00;7.77;;;3.83;;
8247;SDS011;4164;49.844;8.830;2023-01-28T08:37:26;3.93;;;3.00;;
8247;SDS011;4164;49.844;8.830;2023-01-28T08:39:52;6.47;;;3.40;;
8247;SDS011;4164;49.844;8.830;2023-01-28T08:42:17;5.27;;;3.13;;
8247;SDS011;4164;49.844;8.830;2023-01-28T08:44:43;4.67;;;3.73;;
8247;SDS011;4164;49.844;8.830;2023-01-28T08:47:09;8.53;;;3.37;;
8247;SDS011;4164;49.844;8.830;2023-01-28T08:49:38;5.10;;;3.10;;
8247;SDS011;4164;49.844;8.830;2023-01-28T08:52:03;5.40;;;3.23;;
8247;SDS011;4164;49.844;8.830;2023-01-28T08:54:29;4.97;;;3.30;;
8247;SDS011;4164;49.844;8.830;2023-01-28T08:56:54;6.23;;;3.43;;
8247;SDS011;4164;49.844;8.830;2023-01-28T08:59:20;5.80;;;3.27;;
8247;SDS011;4164;49.844;8.830;2023-01-28T09:01:45;4.43;;;3.03;;
8247;SDS011;4164;49.844;8.830;2023-01-28T09:04:11;3.60;;;3.00;;
8247;SDS011;4164;49.844;8.830;2023-01-28T09:06:36;8.13;;;3.50;;
8247;SDS011;4164;49.844;8.830;2023-01-28T09:09:02;4.87;;;3.30;;
8247;SDS011;4164;49.844;8.830;2023-01-28T09:11:28;3.87;;;3.17;;
8247;SDS011;4164;49.844;8.830;2023-01-28T09:13:56;4.67;;;3.30;;
8247;SDS011;4164;49.844;8.830;2023-01-28T09:16:22;4.80;;;3.27;;
8247;SDS011;4164;49.844;8.830;2023-01-28T09:18:47;6.13;;;2.97;;
8247;SDS011;4164;49.844;8.830;2023-01-28T09:21:15;3.63;;;2.93;;
8247;SDS011;4164;49.844;8.830;2023-01-28T09:23:41;4.60;;;3.17;;
8247;SDS011;4164;49.844;8.830;2023-01-28T09:26:07;5.60;;;3.10;;
8247;SDS011;4164;49.844;8.830;2023-01-28T09:28:33;4.00;;;3.23;;
8247;SDS011;4164;49.844;8.830;2023-01-28T09:31:03;6.47;;;3.83;;
8247;SDS011;4164;49.844;8.830;2023-01-28T09:33:30;4.37;;;2.97;;
8247;SDS011;4164;49.844;8.830;2023-01-28T09:35:58;5.83;;;3.33;;
8247;SDS011;4164;49.844;8.830;2023-01-28T09:38:25;3.27;;;2.70;;
8247;SDS011;4164;49.844;8.830;2023-01-28T09:40:50;3.83;;;3.07;;
8247;SDS011;4164;49.844;8.830;2023-01-28T09:45:46;4.20;;;2.67;;
8247;SDS011;4164;49.844;8.830;2023-01-28T09:48:15;2.80;;;2.50;;
8247;SDS011;4164;49.844;8.830;2023-01-28T09:50:47;2.80;;;2.40;;
8247;SDS011;4164;49.844;8.830;2023-01-28T09:55:48;2.80;;;2.40;;
8247;SDS011;4164;49.844;8.830;2023-01-28T09:58:18;3.27;;;2.90;;
8247;SDS011;4164;49.844;8.830;2023-01-28T10:03:54;3.30;;;2.40;;
8247;SDS011;4164;49.844;8.830;2023-01-28T10:12:19;5.07;;;2.80;;
8247;SDS011;4164;49.844;8.830;2023-01-28T10:15:19;3.60;;;3.00;;
8247;SDS011;4164;49.844;8.830;2023-01-28T10:18:07;3.00;;;1.97;;
8247;SDS011;4164;49.844;8.830;2023-01-28T10:20:39;4.13;;;3.00;;
8247;SDS011;4164;49.844;8.830;2023-01-28T10:25:58;3.43;;;2.60;;
8247;SDS011;4164;49.844;8.830;2023-01-28T10:28:28;4.30;;;2.80;;
8247;SDS011;4164;49.844;8.830;2023-01-28T10:30:54;5.77;;;3.83;;
8247;SDS011;4164;49.844;8.830;2023-01-28T10:35:51;4.93;;;3.30;;
8247;SDS011;4164;49.844;8.830;2023-01-28T10:38:20;4.43;;;2.97;;
8247;SDS011;4164;49.844;8.830;2023-01-28T10:40:47;4.93;;;3.53;;
8247;SDS011;4164;49.844;8.830;2023-01-28T10:43:16;5.40;;;3.47;;
8247;SDS011;4164;49.844;8.830;2023-01-28T10:48:34;6.87;;;3.47;;
8247;SDS011;4164;49.844;8.830;2023-01-28T10:51:03;5.03;;;2.90;;
8247;SDS011;4164;49.844;8.830;2023-01-28T10:53:40;4.90;;;2.63;;
8247;SDS011;4164;49.844;8.830;2023-01-28T10:56:13;4.27;;;2.60;;
8247;SDS011;4164;49.844;8.830;2023-01-28T11:01:22;4.83;;;3.67;;
8247;SDS011;4164;49.844;8.830;2023-01-28T11:03:55;4.50;;;2.80;;
8247;SDS011;4164;49.844;8.830;2023-01-28T11:06:27;4.07;;;2.90;;
8247;SDS011;4164;49.844;8.830;2023-01-28T11:08:53;5.57;;;3.40;;
8247;SDS011;4164;49.844;8.830;2023-01-28T11:11:26;5.37;;;3.80;;
8247;SDS011;4164;49.844;8.830;2023-01-28T11:13:53;5.83;;;3.17;;
8247;SDS011;4164;49.844;8.830;2023-01-28T11:16:22;6.83;;;3.60;;
8247;SDS011;4164;49.844;8.830;2023-01-28T11:18:52;5.20;;;3.80;;
8247;SDS011;4164;49.844;8.830;2023-01-28T11:21:24;3.50;;;2.57;;
8247;SDS011;4164;49.844;8.830;2023-01-28T11:23:54;7.00;;;2.73;;
8247;SDS011;4164;49.844;8.830;2023-01-28T11:26:21;5.47;;;3.00;;
8247;SDS011;4164;49.844;8.830;2023-01-28T11:28:50;3.97;;;2.67;;
8247;SDS011;4164;49.844;8.830;2023-01-28T11:31:16;4.50;;;3.40;;
8247;SDS011;4164;49.844;8.830;2023-01-28T11:33:51;6.57;;;4.30;;
8247;SDS011;4164;49.844;8.830;2023-01-28T11:36:29;9.90;;;4.17;;
8247;SDS011;4164;49.844;8.830;2023-01-28T11:41:41;4.60;;;2.60;;
8247;SDS011;4164;49.844;8.830;2023-01-28T11:44:18;3.53;;;2.70;;
8247;SDS011;4164;49.844;8.830;2023-01-28T11:46:56;5.17;;;3.57;;
8247;SDS011;4164;49.844;8.830;2023-01-28T12:08:42;4.90;;;2.70;;
8247;SDS011;4164;49.844;8.830;2023-01-28T12:11:55;4.30;;;3.00;;
8247;SDS011;4164;49.844;8.830;2023-01-28T12:17:35;3.90;;;3.03;;
8247;SDS011;4164;49.844;8.830;2023-01-28T12:23:23;3.97;;;3.10;;
8247;SDS011;4164;49.844;8.830;2023-01-28T12:26:14;6.50;;;3.07;;
8247;SDS011;4164;49.844;8.830;2023-01-28T12:28:49;4.13;;;2.60;;
8247;SDS011;4164;49.844;8.830;2023-01-28T12:34:25;4.90;;;3.10;;
8247;SDS011;4164;49.844;8.830;2023-01-28T12:37:07;5.10;;;2.90;;
8247;SDS011;4164;49.844;8.830;2023-01-28T12:46:02;3.10;;;2.60;;
8247;SDS011;4164;49.844;8.830;2023-01-28T12:56:22;3.57;;;2.83;;
8247;SDS011;4164;49.844;8.830;2023-01-28T12:58:55;4.23;;;3.17;;
8247;SDS011;4164;49.844;8.830;2023-01-28T13:01:27;3.00;;;2.70;;
8247;SDS011;4164;49.844;8.830;2023-01-28T13:04:08;6.27;;;3.40;;
8247;SDS011;4164;49.844;8.830;2023-01-28T13:06:41;4.30;;;2.97;;
8247;SDS011;4164;49.844;8.830;2023-01-28T13:09:17;3.93;;;2.67;;
8247;SDS011;4164;49.844;8.830;2023-01-28T13:11:47;2.87;;;2.47;;
8247;SDS011;4164;49.844;8.830;2023-01-28T13:14:15;2.67;;;2.40;;
8247;SDS011;4164;49.844;8.830;2023-01-28T13:16:43;3.77;;;2.73;;
8247;SDS011;4164;49.844;8.830;2023-01-28T13:21:43;5.70;;;4.17;;
8247;SDS011;4164;49.844;8.830;2023-01-28T13:27:12;5.10;;;2.67;;
8247;SDS011;4164;49.844;8.830;2023-01-28T13:29:37;4.57;;;3.03;;
8247;SDS011;4164;49.844;8.830;2023-01-28T13:32:03;3.20;;;2.90;;
8247;SDS011;4164;49.844;8.830;2023-01-28T13:35:36;5.00;;;2.90;;
8247;SDS011;4164;49.844;8.830;2023-01-28T13:37:53;3.47;;;2.70;;
8247;SDS011;4164;49.844;8.830;2023-01-28T13:40:23;4.37;;;3.20;;
8247;SDS011;4164;49.844;8.830;2023-01-28T13:42:58;4.80;;;3.10;;
8247;SDS011;4164;49.844;8.830;2023-01-28T13:45:54;5.20;;;3.30;;
8247;SDS011;4164;49.844;8.830;2023-01-28T13:48:31;7.73;;;3.33;;
8247;SDS011;4164;49.844;8.830;2023-01-28T13:51:03;3.00;;;2.70;;
8247;SDS011;4164;49.844;8.830;2023-01-28T13:56:40;3.73;;;3.43;;
8247;SDS011;4164;49.844;8.830;2023-01-28T13:59:36;5.43;;;4.40;;
8247;SDS011;4164;49.844;8.830;2023-01-28T14:02:25;4.40;;;3.00;;
8247;SDS011;4164;49.844;8.830;2023-01-28T14:07:54;6.70;;;3.60;;
8247;SDS011;4164;49.844;8.830;2023-01-28T14:11:02;4.20;;;2.73;;
8247;SDS011;4164;49.844;8.830;2023-01-28T14:19:43;3.20;;;2.60;;
8247;SDS011;4164;49.844;8.830;2023-01-28T14:22:12;4.70;;;3.70;;
8247;SDS011;4164;49.844;8.830;2023-01-28T14:24:43;3.00;;;2.63;;
8247;SDS011;4164;49.844;8.830;2023-01-28T14:27:12;5.03;;;4.63;;
8247;SDS011;4164;49.844;8.830;2023-01-28T14:30:09;3.57;;;2.80;;
8247;SDS011;4164;49.844;8.830;2023-01-28T14:32:57;2.80;;;2.50;;
8247;SDS011;4164;49.844;8.830;2023-01-28T14:35:29;4.03;;;2.60;;
8247;SDS011;4164;49.844;8.830;2023-01-28T14:37:57;6.97;;;2.50;;
8247;SDS011;4164;49.844;8.830;2023-01-28T14:40:24;2.67;;;2.43;;
8247;SDS011;4164;49.844;8.830;2023-01-28T14:42:53;4.17;;;2.37;;
8247;SDS011;4164;49.844;8.830;2023-01-28T14:45:35;3.80;;;2.53;;
8247;SDS011;4164;49.844;8.830;2023-01-28T14:50:59;4.23;;;2.93;;
8247;SDS011;4164;49.844;8.830;2023-01-28T14:56:31;2.37;;;2.17;;
8247;SDS011;4164;49.844;8.830;2023-01-28T14:59:03;3.33;;;2.50;;
8247;SDS011;4164;49.844;8.830;2023-01-28T15:01:44;4.03;;;2.90;;
8247;SDS011;4164;49.844;8.830;2023-01-28T15:07:16;5.67;;;2.90;;
8247;SDS011;4164;49.844;8.830;2023-01-28T15:09:47;4.23;;;2.90;;
8247;SDS011;4164;49.844;8.830;2023-01-28T15:12:32;5.23;;;3.00;;
8247;SDS011;4164;49.844;8.830;2023-01-28T15:15:07;3.90;;;2.67;;
8247;SDS011;4164;49.844;8.830;2023-01-28T15:17:41;5.67;;;3.30;;
8247;SDS011;4164;49.844;8.830;2023-01-28T15:20:07;3.23;;;2.83;;
8247;SDS011;4164;49.844;8.830;2023-01-28T15:22:33;4.80;;;3.03;;
8247;SDS011;4164;49.844;8.830;2023-01-28T15:24:59;4.77;;;3.17;;
8247;SDS011;4164;49.844;8.830;2023-01-28T15:27:28;3.50;;;3.07;;
8247;SDS011;4164;49.844;8.830;2023-01-28T15:29:56;2.67;;;2.47;;
8247;SDS011;4164;49.844;8.830;2023-01-28T15:32:27;4.63;;;3.00;;
8247;SDS011;4164;49.844;8.830;2023-01-28T15:34:54;3.37;;;3.03;;
8247;SDS011;4164;49.844;8.830;2023-01-28T15:37:22;3.10;;;2.67;;
8247;SDS011;4164;49.844;8.830;2023-01-28T15:39:58;4.37;;;3.00;;
8247;SDS011;4164;49.844;8.830;2023-01-28T15:42:24;3.07;;;2.77;;
8247;SDS011;4164;49.844;8.830;2023-01-28T15:44:53;5.97;;;3.87;;
8247;SDS011;4164;49.844;8.830;2023-01-28T15:47:26;5.20;;;3.63;;
8247;SDS011;4164;49.844;8.830;2023-01-28T15:49:56;6.47;;;4.27;;
8247;SDS011;4164;49.844;8.830;2023-01-28T15:52:33;4.83;;;3.33;;
8247;SDS011;4164;49.844;8.830;2023-01-28T15:55:04;21.67;;;11.23;;
8247;SDS011;4164;49.844;8.830;2023-01-28T15:57:31;11.07;;;5.63;;
8247;SDS011;4164;49.844;8.830;2023-01-28T16:02:30;5.43;;;4.00;;
8247;SDS011;4164;49.844;8.830;2023-01-28T16:04:57;4.77;;;3.70;;
8247;SDS011;4164;49.844;8.830;2023-01-28T16:07:41;7.47;;;3.33;;
8247;SDS011;4164;49.844;8.830;2023-01-28T16:10:18;6.17;;;4.83;;
8247;SDS011;4164;49.844;8.830;2023-01-28T16:12:49;5.37;;;3.60;;
8247;SDS011;4164;49.844;8.830;2023-01-28T16:15:17;5.37;;;3.53;;
8247;SDS011;4164;49.844;8.830;2023-01-28T16:17:46;3.40;;;3.00;;
8247;SDS011;4164;49.844;8.830;2023-01-28T16:22:50;9.83;;;6.40;;
8247;SDS011;4164;49.844;8.830;2023-01-28T16:25:29;14.90;;;8.73;;
8247;SDS011;4164;49.844;8.830;2023-01-28T16:27:56;10.00;;;7.17;;
8247;SDS011;4164;49.844;8.830;2023-01-28T16:30:23;7.50;;;5.03;;
8247;SDS011;4164;49.844;8.830;2023-01-28T16:32:50;6.43;;;3.90;;
8247;SDS011;4164;49.844;8.830;2023-01-28T16:35:20;20.27;;;10.33;;
8247;SDS011;4164;49.844;8.830;2023-01-28T16:37:47;14.07;;;7.47;;
8247;SDS011;4164;49.844;8.830;2023-01-28T16:40:14;9.13;;;5.80;;
8247;SDS011;4164;49.844;8.830;2023-01-28T16:42:41;11.83;;;7.00;;
8247;SDS011;4164;49.844;8.830;2023-01-28T16:45:19;5.40;;;3.80;;
8247;SDS011;4164;49.844;8.830;2023-01-28T16:47:49;19.37;;;11.23;;
8247;SDS011;4164;49.844;8.830;2023-01-28T16:50:15;21.43;;;11.67;;
8247;SDS011;4164;49.844;8.830;2023-01-28T16:52:42;39.03;;;19.63;;
8247;SDS011;4164;49.844;8.830;2023-01-28T16:55:12;11.13;;;6.27;;
8247;SDS011;4164;49.844;8.830;2023-01-28T16:57:39;7.00;;;5.27;;
8247;SDS011;4164;49.844;8.830;2023-01-28T17:00:05;7.03;;;5.27;;
8247;SDS011;4164;49.844;8.830;2023-01-28T17:02:32;5.13;;;4.00;;
8247;SDS011;4164;49.844;8.830;2023-01-28T17:04:57;6.33;;;4.47;;
8247;SDS011;4164;49.844;8.830;2023-01-28T17:07:23;7.50;;;4.50;;
8247;SDS011;4164;49.844;8.830;2023-01-28T17:09:48;8.67;;;4.13;;
8247;SDS011;4164;49.844;8.830;2023-01-28T17:12:14;5.17;;;4.23;;
8247;SDS011;4164;49.844;8.830;2023-01-28T17:14:39;11.20;;;6.73;;
8247;SDS011;4164;49.844;8.830;2023-01-28T17:17:05;6.57;;;5.13;;
8247;SDS011;4164;49.844;8.830;2023-01-28T17:19:30;8.80;;;6.43;;
8247;SDS011;4164;49.844;8.830;2023-01-28T17:21:59;36.03;;;16.00;;
8247;SDS011;4164;49.844;8.830;2023-01-28T17:24:24;19.50;;;10.30;;
8247;SDS011;4164;49.844;8.830;2023-01-28T17:26:53;78.03;;;29.23;;
8247;SDS011;4164;49.844;8.830;2023-01-28T17:29:18;19.07;;;9.40;;
8247;SDS011;4164;49.844;8.830;2023-01-28T17:31:44;101.67;;;32.70;;
8247;SDS011;4164;49.844;8.830;2023-01-28T17:34:09;107.47;;;37.40;;
8247;SDS011;4164;49.844;8.830;2023-01-28T17:36:36;146.43;;;48.13;;